Time;durP1;ratioP1;P1;durP2;ratioP2;P2;SDS_P1;SDS_P2;PMS_P1;PMS_P2;Temp;Humidity;BMP_temperature;BMP_pressure;BME280_temperature;BME280_humidity;BME280_pressure;Samples;Min_cycle;Max_cycle;Signal;HPM_P1;HPM_P2
2023/09/14 00:02:19;;;;;;;5.50;2.58;;;10.40;11.10;;;;;;5079773;28;20044;-94
2023/09/14 00:04:56;;;;;;;;;;;;;;;;;;;;;
2023/09/14 00:07:29;;;;;;;;;;;10.40;13.30;;;;;;5079392;28;20048;-94
2023/09/14 00:10:00;;;;;;;3.15;2.75;;;10.50;21.00;;;;;;5078013;28;20038;-94
2023/09/14 00:12:29;;;;;;;3.72;2.55;;;10.40;13.90;;;;;;5061383;28;20052;-94
2023/09/14 00:14:55;;;;;;;3.42;2.67;;;10.50;14.20;;;;;;5062967;28;20078;-93
2023/09/14 00:17:24;;;;;;;4.07;2.40;;;10.50;15.20;;;;;;5076351;28;20048;-94
2023/09/14 00:19:49;;;;;;;6.40;3.55;;;10.40;14.90;;;;;;5062660;28;20039;-94
2023/09/14 00:22:15;;;;;;;2.57;2.23;;;10.40;16.00;;;;;;5080865;28;20054;-94
2023/09/14 00:24:44;;;;;;;7.00;3.40;;;10.20;16.30;;;;;;5098037;28;20096;-94
2023/09/14 00:27:21;;;;;;;4.55;2.83;;;10.50;16.50;;;;;;5093005;28;20039;-93
2023/09/14 00:29:52;;;;;;;5.07;2.90;;;10.50;17.10;;;;;;5098273;28;20479;-94
2023/09/14 00:32:23;;;;;;;4.55;2.38;;;9.40;15.50;;;;;;5070928;28;20051;-94
2023/09/14 00:34:54;;;;;;;6.10;3.17;;;10.40;15.80;;;;;;5061193;28;20048;-95
2023/09/14 00:37:19;;;;;;;3.65;2.88;;;11.20;17.90;;;;;;5076733;28;20400;-94
2023/09/14 00:39:47;;;;;;;6.20;3.50;;;10.50;18.50;;;;;;5060064;28;20040;-95
2023/09/14 00:42:16;;;;;;;4.22;2.60;;;10.60;18.10;;;;;;5076302;28;20044;-94
2023/09/14 00:44:46;;;;;;;6.25;3.25;;;10.50;18.70;;;;;;5048804;28;20044;-94
2023/09/14 00:47:20;;;;;;;4.97;3.22;;;10.50;19.10;;;;;;5058560;28;20048;-94
2023/09/14 00:49:48;;;;;;;11.45;4.65;;;10.50;20.10;;;;;;5060952;28;20040;-94
2023/09/14 00:52:24;;;;;;;5.50;3.10;;;10.40;20.90;;;;;;5058673;28;20144;-94
2023/09/14 00:54:52;;;;;;;4.57;3.17;;;10.50;21.90;;;;;;5064480;28;20064;-94
2023/09/14 00:57:20;;;;;;;6.20;3.40;;;10.50;22.60;;;;;;5054757;28;20105;-94
2023/09/14 00:59:47;;;;;;;12.32;4.50;;;10.50;23.60;;;;;;5082075;28;20042;-94
2023/09/14 01:02:15;;;;;;;6.57;3.30;;;10.60;24.90;;;;;;5079742;28;20081;-92
2023/09/14 01:04:43;;;;;;;4.45;2.92;;;10.50;25.00;;;;;;5080080;28;20510;-94
2023/09/14 01:07:14;;;;;;;5.38;3.63;;;10.60;25.00;;;;;;5078301;28;20565;-94
2023/09/14 01:09:44;;;;;;;6.32;3.70;;;10.60;25.30;;;;;;5062775;28;20044;-94
2023/09/14 01:12:18;;;;;;;3.38;3.00;;;10.60;25.50;;;;;;5062384;28;20051;-95
2023/09/14 01:15:09;;;;;;;6.90;3.45;;;10.50;26.10;;;;;;5060690;28;20044;-95
2023/09/14 01:18:13;;;;;;;;;;;;;;;;;;;;;
2023/09/14 01:21:07;;;;;;;5.97;3.47;;;10.70;27.30;;;;;;5096163;28;20053;-95
2023/09/14 01:23:51;;;;;;;4.40;3.05;;;10.50;26.40;;;;;;5097436;28;20050;-95
2023/09/14 01:26:25;;;;;;;11.63;3.92;;;10.50;26.50;;;;;;5082277;28;20077;-93
2023/09/14 01:28:53;;;;;;;8.63;3.30;;;10.50;28.10;;;;;;5083614;28;20130;-94
2023/09/14 01:31:19;;;;;;;4.05;3.05;;;10.50;28.00;;;;;;5083460;28;20054;-94
2023/09/14 01:33:48;;;;;;;6.80;3.10;;;9.60;27.40;;;;;;5082683;28;20138;-94
2023/09/14 01:36:25;;;;;;;6.53;3.00;;;10.50;28.00;;;;;;5098604;28;20831;-95
2023/09/14 01:38:55;;;;;;;5.43;3.92;;;10.60;28.00;;;;;;5103454;28;20047;-94
2023/09/14 01:41:31;;;;;;;9.02;3.67;;;10.40;28.10;;;;;;5076268;28;20075;-93
2023/09/14 01:44:03;;;;;;;4.43;3.43;;;11.40;28.70;;;;;;5078641;28;20040;-94
2023/09/14 01:46:32;;;;;;;6.70;3.55;;;10.50;28.00;;;;;;5044944;28;20868;-94
2023/09/14 01:49:01;;;;;;;3.80;2.88;;;10.50;27.80;;;;;;5048997;27;20491;-94
2023/09/14 01:51:28;;;;;;;5.38;3.67;;;10.40;27.90;;;;;;5080468;28;20078;-95
2023/09/14 01:53:57;;;;;;;6.32;3.20;;;10.40;28.30;;;;;;5085169;28;20055;-93
2023/09/14 01:56:35;;;;;;;5.45;2.70;;;10.50;29.50;;;;;;5099210;28;20040;-94
2023/09/14 01:59:02;;;;;;;4.18;2.80;;;10.40;29.90;;;;;;5068197;28;20407;-94
2023/09/14 02:01:44;;;;;;;;;;;;;;;;;;;;;
2023/09/14 02:04:17;;;;;;;5.13;3.28;;;10.50;31.10;;;;;;5093866;28;20051;-94
2023/09/14 02:06:43;;;;;;;6.65;3.25;;;10.40;30.00;;;;;;5097946;28;20064;-93
2023/09/14 02:09:14;;;;;;;5.00;3.20;;;10.30;29.40;;;;;;5085494;28;20189;-94
2023/09/14 02:11:43;;;;;;;4.60;2.70;;;10.40;29.20;;;;;;5060678;28;20114;-95
2023/09/14 02:14:11;;;;;;;3.80;3.13;;;10.30;29.20;;;;;;5063318;28;20051;-93
2023/09/14 02:16:46;;;;;;;5.70;2.95;;;10.40;28.60;;;;;;5066441;28;20575;-94
2023/09/14 02:19:17;;;;;;;4.00;3.20;;;10.30;27.80;;;;;;5070542;28;20051;-94
2023/09/14 02:21:53;;;;;;;4.32;2.83;;;10.40;28.20;;;;;;5062579;28;20063;-94
2023/09/14 02:24:21;;;;;;;6.57;2.67;;;10.30;27.60;;;;;;5045510;28;20139;-94
2023/09/14 02:26:57;;;;;;;6.80;3.05;;;10.30;27.30;;;;;;5045530;28;20048;-94
2023/09/14 02:29:40;;;;;;;4.55;2.60;;;10.20;27.00;;;;;;5083415;28;20070;-94
2023/09/14 02:32:09;;;;;;;5.10;2.63;;;10.00;26.70;;;;;;5065732;28;20223;-94
2023/09/14 02:34:37;;;;;;;5.63;2.37;;;10.10;26.00;;;;;;5098291;28;20043;-94
2023/09/14 02:37:07;;;;;;;5.30;2.35;;;10.10;25.00;;;;;;5114474;28;20372;-94
2023/09/14 02:39:37;;;;;;;3.58;2.10;;;10.00;24.50;;;;;;5061771;28;20127;-94
2023/09/14 02:42:07;;;;;;;4.40;2.50;;;10.10;24.30;;;;;;5078817;28;20054;-94
2023/09/14 02:44:35;;;;;;;5.55;2.53;;;10.00;23.90;;;;;;5046087;28;20052;-94
2023/09/14 02:47:10;;;;;;;3.13;2.08;;;10.00;23.70;;;;;;5080026;28;20044;-94
2023/09/14 02:49:36;;;;;;;3.70;2.17;;;9.80;23.20;;;;;;5080608;28;20048;-94
2023/09/14 02:52:02;;;;;;;5.93;3.30;;;9.80;21.40;;;;;;5065716;28;20044;-94
2023/09/14 02:54:30;;;;;;;4.47;2.10;;;9.70;20.70;;;;;;5080522;28;20285;-93
2023/09/14 02:57:01;;;;;;;9.57;2.13;;;9.80;20.80;;;;;;5080961;28;20285;-94
2023/09/14 02:59:31;;;;;;;2.70;1.92;;;9.60;19.00;;;;;;5099206;28;20039;-93
2023/09/14 03:02:07;;;;;;;;;;;;;;;;;;;;;
2023/09/14 03:04:38;;;;;;;4.22;2.25;;;9.60;19.50;;;;;;5076807;28;20463;-93
2023/09/14 03:07:04;;;;;;;3.83;2.33;;;8.60;19.40;;;;;;5059540;28;20495;-93
2023/09/14 03:09:41;;;;;;;3.43;2.40;;;9.40;20.90;;;;;;5082105;28;20044;-93
2023/09/14 03:12:16;;;;;;;4.47;2.60;;;9.60;22.00;;;;;;5061251;28;20054;-92
2023/09/14 03:14:42;;;;;;;4.35;2.13;;;9.40;21.60;;;;;;5078132;28;20044;-93
2023/09/14 03:17:13;;;;;;;3.60;2.00;;;9.40;21.30;;;;;;5063046;28;20070;-94
2023/09/14 03:19:44;;;;;;;3.30;2.38;;;9.30;21.90;;;;;;5083117;28;20316;-93
2023/09/14 03:22:12;;;;;;;2.38;1.60;;;9.40;22.30;;;;;;5098709;28;20066;-94
2023/09/14 03:24:40;;;;;;;6.32;2.72;;;9.30;22.50;;;;;;5080118;28;20048;-94
2023/09/14 03:27:06;;;;;;;5.68;2.33;;;9.00;22.80;;;;;;5096907;28;20040;-94
2023/09/14 03:29:32;;;;;;;5.47;2.00;;;9.20;23.10;;;;;;5076504;28;20044;-93
2023/09/14 03:32:03;;;;;;;4.30;2.53;;;9.30;23.70;;;;;;5059251;28;20506;-94
2023/09/14 03:34:29;;;;;;;4.25;2.40;;;9.20;23.80;;;;;;5060148;28;20047;-93
2023/09/14 03:36:55;;;;;;;4.70;2.00;;;9.20;24.00;;;;;;5078506;28;20368;-94
2023/09/14 03:39:24;;;;;;;3.47;2.20;;;9.20;23.80;;;;;;5078034;28;20082;-93
2023/09/14 03:41:49;;;;;;;3.85;2.03;;;9.20;24.10;;;;;;5078070;28;20286;-93
2023/09/14 03:44:16;;;;;;;5.33;2.40;;;9.10;23.80;;;;;;5045940;28;20395;-93
2023/09/14 03:46:45;;;;;;;2.92;1.45;;;9.20;24.00;;;;;;5059180;28;20048;-93
2023/09/14 03:49:11;;;;;;;5.28;1.95;;;9.10;23.70;;;;;;5077713;28;20040;-92
2023/09/14 03:51:37;;;;;;;4.80;2.23;;;9.10;23.30;;;;;;5083810;28;20130;-92
2023/09/14 03:54:08;;;;;;;4.22;2.00;;;9.00;22.80;;;;;;5080756;28;20039;-93
2023/09/14 03:56:51;;;;;;;6.28;1.90;;;9.00;22.90;;;;;;5080039;28;20089;-93
2023/09/14 03:59:17;;;;;;;3.22;1.95;;;8.90;23.60;;;;;;5097599;28;20048;-93
2023/09/14 04:01:50;;;;;;;3.97;2.42;;;8.90;24.50;;;;;;5093993;28;20036;-93
2023/09/14 04:04:18;;;;;;;3.47;2.08;;;8.90;24.50;;;;;;5067812;28;20048;-93
2023/09/14 04:06:53;;;;;;;4.85;2.13;;;9.00;24.10;;;;;;5061499;28;20044;-91
2023/09/14 04:09:21;;;;;;;2.78;1.75;;;8.40;22.80;;;;;;5059802;28;20056;-93
2023/09/14 04:11:49;;;;;;;8.85;2.30;;;8.90;23.00;;;;;;5046156;28;20051;-93
2023/09/14 04:14:15;;;;;;;2.33;1.58;;;8.80;23.40;;;;;;5077366;28;20043;-93
2023/09/14 04:16:44;;;;;;;4.43;1.97;;;8.60;23.40;;;;;;5076620;28;20040;-92
2023/09/14 04:19:14;;;;;;;4.28;1.98;;;8.90;23.70;;;;;;5042668;28;20403;-93
2023/09/14 04:21:44;;;;;;;5.00;2.65;;;8.80;23.50;;;;;;5060864;28;20048;-94
2023/09/14 04:24:10;;;;;;;3.50;1.88;;;8.70;23.80;;;;;;5080575;28;20149;-93
2023/09/14 04:26:38;;;;;;;4.63;2.20;;;8.70;24.30;;;;;;5097092;28;20057;-94
2023/09/14 04:29:09;;;;;;;4.32;2.10;;;8.70;24.60;;;;;;5080877;28;20105;-93
2023/09/14 04:31:37;;;;;;;3.78;2.88;;;8.70;25.30;;;;;;5079988;28;20174;-93
2023/09/14 04:34:07;;;;;;;3.28;2.10;;;8.60;25.60;;;;;;5061883;28;20048;-93
2023/09/14 04:36:33;;;;;;;3.45;2.20;;;8.70;25.50;;;;;;5076881;28;20130;-93
2023/09/14 04:39:05;;;;;;;3.40;2.20;;;8.60;25.80;;;;;;5061262;28;20060;-93
2023/09/14 04:41:31;;;;;;;6.88;2.50;;;8.70;25.40;;;;;;5078654;28;20074;-93
2023/09/14 04:43:57;;;;;;;5.63;2.50;;;8.70;25.20;;;;;;5085969;28;20036;-93
2023/09/14 04:46:23;;;;;;;6.03;2.67;;;8.60;25.60;;;;;;5080822;28;20043;-93
2023/09/14 04:48:51;;;;;;;2.97;1.90;;;8.60;26.10;;;;;;5096545;28;20028;-93
2023/09/14 04:51:17;;;;;;;3.13;2.20;;;8.50;25.40;;;;;;5078844;28;20035;-93
2023/09/14 04:53:43;;;;;;;5.25;2.22;;;8.50;25.60;;;;;;5072711;28;20076;-94
2023/09/14 04:56:12;;;;;;;6.00;3.93;;;8.60;26.00;;;;;;5094886;28;20047;-94
2023/09/14 04:58:38;;;;;;;6.95;2.70;;;8.30;26.00;;;;;;5086479;28;20043;-94
2023/09/14 05:01:06;;;;;;;5.73;2.87;;;8.70;26.20;;;;;;5073849;28;20127;-94
2023/09/14 05:03:37;;;;;;;3.88;2.55;;;8.60;26.50;;;;;;5083749;28;20054;-93
2023/09/14 05:06:05;;;;;;;6.75;2.60;;;8.60;27.10;;;;;;5086429;28;20127;-93
2023/09/14 05:08:33;;;;;;;6.13;2.85;;;8.60;27.30;;;;;;5082692;28;20062;-93
2023/09/14 05:11:03;;;;;;;3.50;2.40;;;8.60;27.50;;;;;;5091396;27;20303;-93
2023/09/14 05:13:29;;;;;;;2.50;1.92;;;8.60;27.60;;;;;;5088102;28;20080;-93
2023/09/14 05:16:04;;;;;;;3.38;2.30;;;8.50;27.40;;;;;;5076625;28;20139;-93
2023/09/14 05:18:30;;;;;;;5.28;2.55;;;8.60;28.20;;;;;;5063463;28;20040;-93
2023/09/14 05:20:58;;;;;;;3.20;2.20;;;8.50;28.80;;;;;;5094617;27;20135;-92
2023/09/14 05:23:24;;;;;;;5.53;2.47;;;8.50;28.90;;;;;;5097464;28;20070;-93
2023/09/14 05:25:50;;;;;;;5.73;2.90;;;8.50;28.90;;;;;;5069732;28;20492;-93
2023/09/14 05:28:15;;;;;;;3.80;2.30;;;8.50;29.30;;;;;;5075105;27;20043;-93
2023/09/14 05:30:43;;;;;;;6.40;2.90;;;8.60;29.70;;;;;;5077831;28;20043;-92
2023/09/14 05:33:09;;;;;;;5.90;2.28;;;7.60;29.80;;;;;;5081281;27;20407;-92
2023/09/14 05:35:38;;;;;;;5.32;2.55;;;8.60;30.50;;;;;;5082528;27;20049;-93
2023/09/14 05:38:11;;;;;;;3.42;2.30;;;8.70;30.60;;;;;;5103562;27;20039;-92
2023/09/14 05:40:40;;;;;;;6.20;2.97;;;8.80;31.50;;;;;;5093642;28;20042;-93
2023/09/14 05:43:05;;;;;;;3.97;2.33;;;8.70;32.50;;;;;;5079391;28;20052;-93
2023/09/14 05:45:34;;;;;;;5.47;3.33;;;8.80;32.90;;;;;;5074288;28;20462;-93
2023/09/14 05:48:04;;;;;;;3.58;2.60;;;8.90;33.80;;;;;;5117030;27;20043;-93
2023/09/14 05:50:31;;;;;;;6.82;2.97;;;8.90;35.00;;;;;;5119724;27;20039;-93
2023/09/14 05:52:59;;;;;;;4.88;2.75;;;9.00;36.00;;;;;;5081366;27;20035;-92
2023/09/14 05:55:27;;;;;;;3.85;2.97;;;9.10;37.20;;;;;;5084603;27;20036;-93
2023/09/14 05:57:54;;;;;;;4.65;2.80;;;9.10;39.50;;;;;;5067967;27;20056;-93
2023/09/14 06:00:22;;;;;;;4.30;2.55;;;9.30;42.20;;;;;;5118501;27;20043;-93
2023/09/14 06:02:52;;;;;;;5.85;2.85;;;9.40;44.10;;;;;;5090734;28;20131;-93
2023/09/14 06:05:18;;;;;;;5.35;2.58;;;9.60;44.60;;;;;;5099351;27;20049;-93
2023/09/14 06:07:44;;;;;;;5.88;2.78;;;9.90;43.10;;;;;;5093034;28;20044;-91
2023/09/14 06:10:12;;;;;;;6.33;3.33;;;10.20;38.80;;;;;;5078671;28;20051;-89
2023/09/14 06:12:38;;;;;;;3.80;2.65;;;10.40;36.50;;;;;;5077803;27;20648;-90
2023/09/14 06:15:04;;;;;;;5.07;2.58;;;10.80;31.70;;;;;;5070151;28;20134;-90
2023/09/14 06:17:30;;;;;;;2.95;2.45;;;11.00;27.90;;;;;;5064830;28;20075;-90
2023/09/14 06:19:56;;;;;;;3.30;2.30;;;11.20;25.10;;;;;;5091059;28;20447;-89
2023/09/14 06:22:21;;;;;;;4.10;2.00;;;11.50;22.60;;;;;;5078901;28;20293;-90
2023/09/14 06:24:50;;;;;;;9.68;3.72;;;11.80;18.40;;;;;;5064097;28;20048;-88
2023/09/14 06:27:16;;;;;;;3.38;2.30;;;12.10;12.60;;;;;;5077185;28;20510;-89
2023/09/14 06:29:41;;;;;;;4.05;2.20;;;12.40;9.40;;;;;;5080699;28;20040;-86
2023/09/14 06:32:07;;;;;;;4.78;2.38;;;12.60;3.20;;;;;;5085979;28;20062;-88
2023/09/14 06:34:33;;;;;;;3.23;2.13;;;13.00;1.00;;;;;;5060208;28;20531;-86
2023/09/14 06:36:58;;;;;;;4.37;2.83;;;13.30;1.00;;;;;;5076578;28;20290;-88
2023/09/14 06:39:24;;;;;;;3.42;1.88;;;13.50;1.00;;;;;;5076109;28;20040;-85
2023/09/14 06:41:50;;;;;;;4.75;2.50;;;13.70;1.00;;;;;;5063433;28;20478;-88
2023/09/14 06:44:18;;;;;;;5.93;2.45;;;13.90;1.00;;;;;;5099991;28;20046;-86
2023/09/14 06:46:46;;;;;;;4.88;2.35;;;14.10;1.00;;;;;;5087191;28;20048;-87
2023/09/14 06:49:12;;;;;;;3.53;2.10;;;14.30;1.00;;;;;;5102167;28;20070;-86
2023/09/14 06:51:38;;;;;;;5.13;2.60;;;14.40;1.00;;;;;;5097605;28;20078;-88
2023/09/14 06:54:04;;;;;;;3.17;1.80;;;14.50;1.00;;;;;;5078449;27;20043;-90
2023/09/14 06:56:30;;;;;;;2.88;1.92;;;14.60;1.00;;;;;;5081501;28;20047;-89
2023/09/14 06:58:58;;;;;;;3.15;1.90;;;14.80;1.00;;;;;;5095631;28;20082;-89
2023/09/14 07:01:24;;;;;;;3.00;1.95;;;15.10;1.00;;;;;;5058549;28;20843;-89
2023/09/14 07:03:53;;;;;;;3.67;1.73;;;15.50;1.00;;;;;;5059128;28;20044;-90
2023/09/14 07:06:19;;;;;;;6.28;2.80;;;15.80;1.00;;;;;;5088287;28;20556;-92
2023/09/14 07:08:44;;;;;;;3.97;1.98;;;16.00;99.90;;;;;;5062453;28;20063;-90
2023/09/14 07:11:11;;;;;;;4.20;1.90;;;16.30;99.90;;;;;;5059184;28;20047;-91
2023/09/14 07:13:36;;;;;;;;;;;16.50;99.90;;;;;;5075778;27;20039;-93
2023/09/14 07:16:05;;;;;;;2.90;1.75;;;16.80;99.90;;;;;;5100024;27;20252;-92
2023/09/14 07:18:32;;;;;;;4.57;1.60;;;17.00;99.90;;;;;;5099489;27;20134;-91
2023/09/14 07:21:01;;;;;;;5.90;1.80;;;17.30;1.00;;;;;;5099797;27;20042;-91
2023/09/14 07:23:27;;;;;;;3.00;1.80;;;17.60;99.90;;;;;;5091221;28;20552;-92
2023/09/14 07:25:55;;;;;;;3.75;1.80;;;17.80;99.90;;;;;;5070120;28;20093;-93
2023/09/14 07:28:23;;;;;;;2.97;1.58;;;17.90;99.90;;;;;;5075702;28;20048;-91
2023/09/14 07:30:54;;;;;;;3.30;1.73;;;17.90;99.90;;;;;;5077756;28;20560;-88
2023/09/14 07:33:21;;;;;;;4.72;1.83;;;18.10;1.00;;;;;;5059590;28;20084;-93
2023/09/14 07:35:47;;;;;;;3.55;2.00;;;18.30;99.90;;;;;;5044216;28;20487;-88
2023/09/14 07:38:13;;;;;;;4.63;1.50;;;18.50;99.90;;;;;;5055138;28;20040;-88
2023/09/14 07:40:39;;;;;;;;;;;18.70;1.00;;;;;;5069084;28;20078;-89
2023/09/14 07:43:05;;;;;;;4.70;1.50;;;18.90;99.90;;;;;;5076382;28;19920;-86
2023/09/14 07:45:40;;;;;;;4.15;1.30;;;19.10;99.90;;;;;;5074359;28;20075;-89
2023/09/14 07:48:07;;;;;;;3.33;1.67;;;19.30;99.90;;;;;;5073335;28;20437;-85
2023/09/14 07:50:39;;;;;;;2.40;1.60;;;19.40;94.50;;;;;;5078183;28;20043;-88
2023/09/14 07:53:08;;;;;;;3.67;1.42;;;19.50;1.00;;;;;;5058614;28;20462;-88
2023/09/14 07:55:34;;;;;;;3.08;1.40;;;19.70;99.90;;;;;;5060970;28;20044;-89
2023/09/14 07:58:00;;;;;;;5.45;2.00;;;19.70;1.00;;;;;;5115319;27;20482;-89
2023/09/14 08:00:27;;;;;;;2.13;1.50;;;19.70;99.90;;;;;;5081262;27;20051;-89
2023/09/14 08:02:54;;;;;;;3.20;1.65;;;19.70;1.00;;;;;;5094040;28;20078;-85
2023/09/14 08:05:20;;;;;;;6.90;1.88;;;19.70;14.00;;;;;;5095920;28;20052;-87
2023/09/14 08:07:45;;;;;;;3.55;1.50;;;19.60;1.00;;;;;;5057923;28;20056;-87
2023/09/14 08:10:11;;;;;;;7.32;1.33;;;19.60;70.70;;;;;;5059388;28;20040;-87
2023/09/14 08:12:37;;;;;;;7.55;1.85;;;19.60;92.30;;;;;;5050419;28;20048;-87
2023/09/14 08:15:07;;;;;;;4.57;1.90;;;19.60;99.90;;;;;;5090013;28;20079;-88
2023/09/14 08:17:33;;;;;;;5.57;1.38;;;19.60;99.90;;;;;;5081071;28;20502;-88
2023/09/14 08:19:59;;;;;;;2.45;1.58;;;19.60;1.00;;;;;;5091742;28;20093;-88
2023/09/14 08:22:25;;;;;;;;;;;19.60;1.00;;;;;;5079889;28;20047;-88
2023/09/14 08:24:51;;;;;;;3.72;1.45;;;19.60;1.00;;;;;;5094806;28;20431;-88
2023/09/14 08:27:17;;;;;;;3.70;2.15;;;19.60;99.90;;;;;;5073644;28;20048;-88
2023/09/14 08:29:44;;;;;;;4.13;1.77;;;19.60;1.00;;;;;;5073705;28;20048;-86
2023/09/14 08:32:13;;;;;;;5.13;2.10;;;19.60;1.00;;;;;;5057864;28;20197;-86
2023/09/14 08:34:39;;;;;;;15.20;3.25;;;19.50;1.00;;;;;;5093821;28;20046;-86
2023/09/14 08:37:09;;;;;;;3.45;1.58;;;19.50;8.60;;;;;;5094997;28;20048;-86
2023/09/14 08:39:36;;;;;;;7.85;2.05;;;19.30;1.00;;;;;;5094737;28;20491;-86
2023/09/14 08:42:01;;;;;;;6.70;2.38;;;19.20;99.90;;;;;;5078546;28;20052;-86
2023/09/14 08:44:32;;;;;;;3.70;2.28;;;19.10;99.90;;;;;;5077726;28;20040;-85
2023/09/14 08:46:58;;;;;;;4.13;1.75;;;19.00;69.00;;;;;;5089298;28;20190;-86
2023/09/14 08:49:27;;;;;;;5.07;1.83;;;19.00;32.90;;;;;;5061652;28;20048;-86
2023/09/14 08:51:55;;;;;;;4.75;1.90;;;18.90;1.00;;;;;;5078635;28;20392;-86
2023/09/14 08:54:23;;;;;;;4.63;1.75;;;18.90;1.00;;;;;;5080940;28;20054;-86
2023/09/14 08:56:51;;;;;;;5.03;1.60;;;18.80;73.50;;;;;;5062004;28;20051;-86
2023/09/14 08:59:20;;;;;;;6.75;2.35;;;18.90;1.00;;;;;;5065166;27;20046;-86
2023/09/14 09:01:48;;;;;;;5.18;1.98;;;18.90;50.00;;;;;;5046494;28;20055;-86
2023/09/14 09:04:14;;;;;;;5.80;2.22;;;18.90;1.00;;;;;;5051197;28;20044;-88
2023/09/14 09:06:44;;;;;;;5.90;1.85;;;18.90;99.90;;;;;;5045813;28;20044;-83
2023/09/14 09:09:14;;;;;;;5.45;1.98;;;18.80;55.60;;;;;;5084370;28;20059;-85
2023/09/14 09:11:39;;;;;;;5.28;2.17;;;18.80;19.20;;;;;;5075097;28;20416;-86
2023/09/14 09:14:05;;;;;;;7.95;2.42;;;18.80;99.90;;;;;;5044410;28;20102;-86
2023/09/14 09:16:31;;;;;;;6.05;2.42;;;18.80;99.90;;;;;;5093755;28;20075;-86
2023/09/14 09:19:10;;;;;;;7.20;2.05;;;18.80;99.90;;;;;;5077255;28;20491;-86
2023/09/14 09:21:36;;;;;;;6.63;1.92;;;18.80;99.90;;;;;;5076518;28;20518;-86
2023/09/14 09:24:07;;;;;;;6.03;1.98;;;18.80;99.90;;;;;;5057712;28;20079;-85
2023/09/14 09:26:35;;;;;;;6.72;2.20;;;18.80;99.90;;;;;;5072355;28;20047;-84
2023/09/14 09:29:14;;;;;;;6.63;1.88;;;18.90;99.90;;;;;;5060026;28;20040;-85
2023/09/14 09:31:44;;;;;;;4.35;1.88;;;18.90;99.90;;;;;;5083851;28;20051;-85
2023/09/14 09:34:12;;;;;;;6.18;2.47;;;19.00;99.90;;;;;;5066938;28;20051;-87
2023/09/14 09:36:38;;;;;;;8.23;2.47;;;18.90;75.00;;;;;;5055809;28;20079;-87
2023/09/14 09:39:05;;;;;;;5.07;2.60;;;19.00;99.90;;;;;;5062704;28;20489;-87
2023/09/14 09:41:34;;;;;;;6.70;2.05;;;19.00;99.90;;;;;;5064660;28;20444;-89
2023/09/14 09:44:09;;;;;;;7.00;2.63;;;19.00;1.00;;;;;;5072247;28;20598;-87
2023/09/14 09:46:35;;;;;;;5.38;2.83;;;19.00;99.90;;;;;;5045289;28;20040;-87
2023/09/14 09:49:14;;;;;;;7.43;2.10;;;19.10;99.90;;;;;;5069337;28;20036;-87
2023/09/14 09:51:40;;;;;;;5.55;2.40;;;19.20;69.50;;;;;;5059579;28;20036;-87
2023/09/14 09:54:09;;;;;;;4.20;1.70;;;19.20;1.00;;;;;;5076381;28;20052;-87
2023/09/14 09:56:36;;;;;;;7.13;2.65;;;19.30;99.90;;;;;;5054220;28;20098;-87
2023/09/14 09:59:04;;;;;;;3.35;1.70;;;19.40;99.90;;;;;;5080376;28;20048;-87
2023/09/14 10:01:30;;;;;;;4.80;2.08;;;19.40;99.90;;;;;;5060502;28;20102;-86
2023/09/14 10:03:59;;;;;;;;;;;19.50;99.90;;;;;;5059653;28;20040;-86
2023/09/14 10:06:25;;;;;;;6.20;2.25;;;19.50;99.90;;;;;;5058713;28;19927;-86
2023/09/14 10:08:57;;;;;;;4.93;1.98;;;19.60;99.90;;;;;;5083231;28;20119;-86
2023/09/14 10:11:24;;;;;;;7.53;1.75;;;19.70;99.90;;;;;;5061450;28;20067;-84
2023/09/14 10:13:51;;;;;;;4.80;1.65;;;19.80;99.90;;;;;;5079775;28;20054;-82
2023/09/14 10:16:22;;;;;;;;;;;19.80;71.50;;;;;;5063677;28;20047;-86
2023/09/14 10:18:49;;;;;;;4.47;2.20;;;19.80;1.00;;;;;;5079480;28;20002;-87
2023/09/14 10:21:16;;;;;;;5.60;2.47;;;19.80;99.90;;;;;;5063737;28;20138;-86
2023/09/14 10:23:43;;;;;;;5.32;2.05;;;19.90;1.00;;;;;;5059565;28;20399;-88
2023/09/14 10:26:09;;;;;;;5.90;2.00;;;19.90;99.90;;;;;;5076574;28;20052;-88
2023/09/14 10:28:37;;;;;;;5.07;1.80;;;20.00;99.90;;;;;;5059794;28;20098;-88
2023/09/14 10:31:04;;;;;;;4.38;1.95;;;20.20;99.90;;;;;;5076326;28;20049;-87
2023/09/14 10:33:30;;;;;;;4.05;2.28;;;20.40;99.90;;;;;;5045018;27;20376;-88
2023/09/14 10:35:57;;;;;;;4.25;2.10;;;20.50;99.90;;;;;;5063514;28;20108;-87
2023/09/14 10:38:24;;;;;;;5.07;1.95;;;20.60;99.90;;;;;;5091898;28;20132;-86
2023/09/14 10:40:53;;;;;;;6.35;2.33;;;20.80;99.90;;;;;;5074053;27;20047;-87
2023/09/14 10:43:19;;;;;;;3.40;2.63;;;21.00;99.90;;;;;;5064891;28;20392;-87
2023/09/14 10:45:48;;;;;;;5.60;2.10;;;20.90;99.90;;;;;;5075601;28;20040;-85
2023/09/14 10:48:19;;;;;;;10.07;2.53;;;21.10;99.90;;;;;;5084292;28;20052;-86
2023/09/14 10:50:45;;;;;;;5.57;2.03;;;21.20;99.90;;;;;;5075387;28;20083;-86
2023/09/14 10:53:14;;;;;;;7.20;2.95;;;21.30;99.90;;;;;;5053143;28;20072;-88
2023/09/14 10:55:41;;;;;;;4.18;1.98;;;21.10;99.90;;;;;;5091669;28;20044;-87
2023/09/14 10:58:11;;;;;;;3.90;2.50;;;20.90;99.90;;;;;;5083824;27;20044;-86
2023/09/14 11:00:38;;;;;;;6.03;2.85;;;20.60;99.90;;;;;;5092123;28;20069;-86
2023/09/14 11:03:06;;;;;;;4.68;2.08;;;20.40;99.90;;;;;;5076687;28;20055;-86
2023/09/14 11:05:41;;;;;;;6.43;2.17;;;20.20;99.90;;;;;;5092004;28;20050;-87
2023/09/14 11:08:08;;;;;;;3.90;2.25;;;20.00;99.90;;;;;;5058550;28;20499;-86
2023/09/14 11:10:34;;;;;;;;;;;19.80;99.90;;;;;;5091645;28;20071;-86
2023/09/14 11:13:19;;;;;;;4.05;1.70;;;19.80;99.90;;;;;;5061966;28;20014;-86
2023/09/14 11:15:46;;;;;;;7.28;2.15;;;19.90;99.90;;;;;;5076869;28;20497;-87
2023/09/14 11:18:36;;;;;;;5.53;2.13;;;20.10;99.90;;;;;;5078693;28;20502;-87
2023/09/14 11:21:02;;;;;;;5.63;2.47;;;20.50;99.90;;;;;;5075042;28;20044;-86
2023/09/14 11:23:35;;;;;;;6.25;3.17;;;20.80;99.90;;;;;;5060272;28;20043;-87
2023/09/14 11:26:02;;;;;;;3.85;1.90;;;21.00;99.90;;;;;;5095106;28;20104;-87
2023/09/14 11:28:30;;;;;;;4.82;2.10;;;21.10;99.90;;;;;;5067545;28;20052;-87
2023/09/14 11:30:56;;;;;;;5.95;2.45;;;21.20;99.90;;;;;;5090601;28;20042;-87
2023/09/14 11:33:22;;;;;;;;;;;21.00;99.90;;;;;;5075721;28;20048;-85
2023/09/14 11:35:51;;;;;;;4.53;1.90;;;21.00;99.90;;;;;;5074325;28;20015;-86
2023/09/14 11:38:25;;;;;;;9.02;2.60;;;20.80;99.90;;;;;;5070560;28;20070;-86
2023/09/14 11:40:53;;;;;;;4.55;2.10;;;20.70;99.90;;;;;;5093186;27;20090;-86
2023/09/14 11:43:34;;;;;;;5.35;2.75;;;20.30;99.90;;;;;;5058869;28;20051;-86
2023/09/14 11:46:01;;;;;;;7.88;2.70;;;20.20;99.90;;;;;;5075730;28;20052;-86
2023/09/14 11:48:35;;;;;;;5.43;2.30;;;20.00;99.90;;;;;;5075035;28;20051;-86
2023/09/14 11:51:02;;;;;;;5.57;2.72;;;19.80;99.90;;;;;;5057038;28;20093;-86
2023/09/14 11:53:32;;;;;;;6.40;2.10;;;19.70;99.90;;;;;;5057979;28;20050;-85
2023/09/14 11:55:58;;;;;;;5.32;2.10;;;19.70;99.90;;;;;;5078353;28;20138;-87
2023/09/14 11:58:24;;;;;;;5.50;2.50;;;19.60;99.90;;;;;;5095539;28;20134;-86
2023/09/14 12:00:56;;;;;;;8.50;2.25;;;19.40;99.90;;;;;;5077055;28;20079;-86
2023/09/14 12:03:22;;;;;;;5.45;2.42;;;19.50;99.90;;;;;;5078806;28;20130;-87
2023/09/14 12:05:47;;;;;;;4.70;1.92;;;19.70;99.90;;;;;;5066016;27;20432;-87
2023/09/14 12:08:15;;;;;;;6.35;2.63;;;20.00;99.90;;;;;;5076137;28;20514;-87
2023/09/14 12:10:43;;;;;;;6.72;2.70;;;20.20;99.90;;;;;;5078386;28;20040;-87
2023/09/14 12:13:10;;;;;;;4.57;2.50;;;20.50;99.90;;;;;;5077101;28;20118;-87
2023/09/14 12:15:36;;;;;;;4.25;2.65;;;20.60;99.90;;;;;;5095177;28;20466;-87
2023/09/14 12:18:03;;;;;;;6.00;3.10;;;20.60;99.90;;;;;;5079494;28;20068;-87
2023/09/14 12:20:29;;;;;;;5.15;2.53;;;20.60;99.90;;;;;;5078414;28;20540;-86
2023/09/14 12:22:55;;;;;;;4.75;2.40;;;20.40;99.90;;;;;;5077034;28;20048;-87
2023/09/14 12:25:21;;;;;;;5.22;2.20;;;20.30;99.90;;;;;;5078409;28;20044;-86
2023/09/14 12:27:48;;;;;;;5.65;3.00;;;20.30;99.90;;;;;;5092604;28;20051;-87
2023/09/14 12:30:15;;;;;;;3.70;2.20;;;20.30;99.90;;;;;;5075633;28;20454;-87
2023/09/14 12:32:41;;;;;;;5.40;2.85;;;20.50;99.90;;;;;;5078559;28;20047;-87
2023/09/14 12:35:10;;;;;;;5.18;2.25;;;20.80;99.90;;;;;;5072623;28;20094;-87
2023/09/14 12:37:36;;;;;;;4.22;2.28;;;21.10;99.90;;;;;;5063228;28;20435;-87
2023/09/14 12:40:12;;;;;;;4.75;2.20;;;21.30;99.90;;;;;;5070146;28;20048;-86
2023/09/14 12:42:42;;;;;;;;;;;21.50;99.90;;;;;;5059498;28;20047;-87
2023/09/14 12:45:14;;;;;;;3.38;2.40;;;21.50;99.90;;;;;;5075180;28;20038;-87
2023/09/14 12:47:41;;;;;;;4.28;2.20;;;21.30;99.90;;;;;;5095305;28;20189;-87
2023/09/14 12:50:15;;;;;;;8.88;3.03;;;21.00;99.90;;;;;;5075062;28;20040;-87
2023/09/14 12:52:42;;;;;;;5.78;2.53;;;20.90;99.90;;;;;;5074819;28;20051;-87
2023/09/14 12:55:18;;;;;;;3.60;1.90;;;20.80;99.90;;;;;;5100102;28;20494;-86
2023/09/14 12:57:48;;;;;;;8.38;3.60;;;20.90;99.90;;;;;;5059078;28;20050;-87
2023/09/14 13:00:20;;;;;;;6.70;2.55;;;21.20;99.90;;;;;;5093578;28;20051;-86
2023/09/14 13:02:47;;;;;;;4.28;2.42;;;21.40;99.90;;;;;;5069508;28;20101;-87
2023/09/14 13:05:14;;;;;;;4.70;2.53;;;21.60;99.90;;;;;;5076999;28;20040;-86
2023/09/14 13:07:48;;;;;;;8.73;2.67;;;21.70;99.90;;;;;;5079186;28;20052;-86